sensor_id;sensor_type;location;lat;lon;timestamp;pressure;altitude;pressure_sealevel;temperature
41593;BMP180;28026;48.562;14.440;2023-11-22T00:00:12;93607.00;;;11.20
41593;BMP180;28026;48.562;14.440;2023-11-22T00:02:44;93612.00;;;11.20
41593;BMP180;28026;48.562;14.440;2023-11-22T00:05:15;93627.00;;;11.20
41593;BMP180;28026;48.562;14.440;2023-11-22T00:07:45;93628.00;;;11.10
41593;BMP180;28026;48.562;14.440;2023-11-22T00:10:16;93629.00;;;11.10
41593;BMP180;28026;48.562;14.440;2023-11-22T00:12:47;93631.00;;;11.00
41593;BMP180;28026;48.562;14.440;2023-11-22T00:15:18;93634.00;;;11.00
41593;BMP180;28026;48.562;14.440;2023-11-22T00:17:49;93636.00;;;11.00
41593;BMP180;28026;48.562;14.440;2023-11-22T00:20:20;93639.00;;;10.90
41593;BMP180;28026;48.562;14.440;2023-11-22T00:22:51;93644.00;;;10.80
41593;BMP180;28026;48.562;14.440;2023-11-22T00:25:22;93645.00;;;10.80
41593;BMP180;28026;48.562;14.440;2023-11-22T00:27:53;93643.00;;;10.70
41593;BMP180;28026;48.562;14.440;2023-11-22T00:30:25;93648.00;;;10.70
41593;BMP180;28026;48.562;14.440;2023-11-22T00:32:56;93653.00;;;10.70
41593;BMP180;28026;48.562;14.440;2023-11-22T00:35:28;93663.00;;;10.70
41593;BMP180;28026;48.562;14.440;2023-11-22T00:37:58;93659.00;;;10.50
41593;BMP180;28026;48.562;14.440;2023-11-22T00:40:29;93670.00;;;10.50
41593;BMP180;28026;48.562;14.440;2023-11-22T00:43:01;93672.00;;;10.30
41593;BMP180;28026;48.562;14.440;2023-11-22T00:45:33;93674.00;;;10.30
41593;BMP180;28026;48.562;14.440;2023-11-22T00:48:04;93681.00;;;10.30
41593;BMP180;28026;48.562;14.440;2023-11-22T00:50:35;93679.00;;;10.20
41593;BMP180;28026;48.562;14.440;2023-11-22T00:53:06;93680.00;;;10.20
41593;BMP180;28026;48.562;14.440;2023-11-22T00:55:37;93684.00;;;10.20
41593;BMP180;28026;48.562;14.440;2023-11-22T00:58:08;93684.00;;;10.10
41593;BMP180;28026;48.562;14.440;2023-11-22T01:00:38;93674.00;;;10.10
41593;BMP180;28026;48.562;14.440;2023-11-22T01:03:09;93682.00;;;10.00
41593;BMP180;28026;48.562;14.440;2023-11-22T01:05:42;93678.00;;;10.00
41593;BMP180;28026;48.562;14.440;2023-11-22T01:08:13;93681.00;;;10.00
41593;BMP180;28026;48.562;14.440;2023-11-22T01:10:44;93682.00;;;10.00
41593;BMP180;28026;48.562;14.440;2023-11-22T01:13:16;93679.00;;;10.00
41593;BMP180;28026;48.562;14.440;2023-11-22T01:15:47;93674.00;;;10.00
41593;BMP180;28026;48.562;14.440;2023-11-22T01:18:18;93672.00;;;10.00
41593;BMP180;28026;48.562;14.440;2023-11-22T01:20:49;93670.00;;;9.90
41593;BMP180;28026;48.562;14.440;2023-11-22T01:23:20;93660.00;;;9.90
41593;BMP180;28026;48.562;14.440;2023-11-22T01:25:51;93670.00;;;9.80
41593;BMP180;28026;48.562;14.440;2023-11-22T01:28:22;93659.00;;;9.80
41593;BMP180;28026;48.562;14.440;2023-11-22T01:30:56;93671.00;;;9.70
41593;BMP180;28026;48.562;14.440;2023-11-22T01:33:27;93672.00;;;9.60
41593;BMP180;28026;48.562;14.440;2023-11-22T01:35:57;93670.00;;;9.60
41593;BMP180;28026;48.562;14.440;2023-11-22T01:38:28;93675.00;;;9.50
41593;BMP180;28026;48.562;14.440;2023-11-22T01:41:00;93682.00;;;9.50
41593;BMP180;28026;48.562;14.440;2023-11-22T01:43:32;93687.00;;;9.50
41593;BMP180;28026;48.562;14.440;2023-11-22T01:46:03;93683.00;;;9.50
41593;BMP180;28026;48.562;14.440;2023-11-22T01:48:35;93681.00;;;9.50
41593;BMP180;28026;48.562;14.440;2023-11-22T01:51:07;93684.00;;;9.50
41593;BMP180;28026;48.562;14.440;2023-11-22T01:53:39;93679.00;;;9.40
41593;BMP180;28026;48.562;14.440;2023-11-22T01:56:10;93656.00;;;9.40
41593;BMP180;28026;48.562;14.440;2023-11-22T01:58:41;93668.00;;;9.40
41593;BMP180;28026;48.562;14.440;2023-11-22T02:01:12;93669.00;;;9.40
41593;BMP180;28026;48.562;14.440;2023-11-22T02:03:46;93669.00;;;9.30
41593;BMP180;28026;48.562;14.440;2023-11-22T02:06:20;93683.00;;;9.30
41593;BMP180;28026;48.562;14.440;2023-11-22T02:08:52;93681.00;;;9.30
41593;BMP180;28026;48.562;14.440;2023-11-22T02:11:23;93685.00;;;9.20
41593;BMP180;28026;48.562;14.440;2023-11-22T02:13:54;93691.00;;;9.20
41593;BMP180;28026;48.562;14.440;2023-11-22T02:16:26;93692.00;;;9.20
41593;BMP180;28026;48.562;14.440;2023-11-22T02:18:58;93692.00;;;9.20
41593;BMP180;28026;48.562;14.440;2023-11-22T02:21:29;93685.00;;;9.20
41593;BMP180;28026;48.562;14.440;2023-11-22T02:24:00;93685.00;;;9.10
41593;BMP180;28026;48.562;14.440;2023-11-22T02:26:30;93675.00;;;9.20
41593;BMP180;28026;48.562;14.440;2023-11-22T02:29:02;93674.00;;;9.10
41593;BMP180;28026;48.562;14.440;2023-11-22T02:31:36;93678.00;;;9.10
41593;BMP180;28026;48.562;14.440;2023-11-22T02:34:07;93691.00;;;9.00
41593;BMP180;28026;48.562;14.440;2023-11-22T02:36:38;93693.00;;;9.00
41593;BMP180;28026;48.562;14.440;2023-11-22T02:39:09;93705.00;;;9.00
41593;BMP180;28026;48.562;14.440;2023-11-22T02:41:40;93699.00;;;9.00
41593;BMP180;28026;48.562;14.440;2023-11-22T02:44:11;93707.00;;;9.00
41593;BMP180;28026;48.562;14.440;2023-11-22T02:46:47;93700.00;;;9.00
41593;BMP180;28026;48.562;14.440;2023-11-22T02:49:18;93717.00;;;9.00
41593;BMP180;28026;48.562;14.440;2023-11-22T02:51:50;93716.00;;;9.00
41593;BMP180;28026;48.562;14.440;2023-11-22T02:54:21;93716.00;;;9.00
41593;BMP180;28026;48.562;14.440;2023-11-22T02:56:52;93719.00;;;8.90
41593;BMP180;28026;48.562;14.440;2023-11-22T02:59:22;93721.00;;;8.90
41593;BMP180;28026;48.562;14.440;2023-11-22T03:01:53;93728.00;;;8.90
41593;BMP180;28026;48.562;14.440;2023-11-22T03:04:24;93738.00;;;8.90
41593;BMP180;28026;48.562;14.440;2023-11-22T03:06:55;93746.00;;;8.90
41593;BMP180;28026;48.562;14.440;2023-11-22T03:09:26;93755.00;;;8.90
41593;BMP180;28026;48.562;14.440;2023-11-22T03:11:57;93744.00;;;8.90
41593;BMP180;28026;48.562;14.440;2023-11-22T03:14:28;93753.00;;;8.80
41593;BMP180;28026;48.562;14.440;2023-11-22T03:16:59;93747.00;;;8.80
41593;BMP180;28026;48.562;14.440;2023-11-22T03:19:30;93753.00;;;8.70
41593;BMP180;28026;48.562;14.440;2023-11-22T03:22:04;93764.00;;;8.70
41593;BMP180;28026;48.562;14.440;2023-11-22T03:24:35;93770.00;;;8.60
41593;BMP180;28026;48.562;14.440;2023-11-22T03:27:07;93770.00;;;8.50
41593;BMP180;28026;48.562;14.440;2023-11-22T03:29:38;93765.00;;;8.50
41593;BMP180;28026;48.562;14.440;2023-11-22T03:32:09;93767.00;;;8.40
41593;BMP180;28026;48.562;14.440;2023-11-22T03:34:42;93775.00;;;8.40
41593;BMP180;28026;48.562;14.440;2023-11-22T03:37:12;93779.00;;;8.40
41593;BMP180;28026;48.562;14.440;2023-11-22T03:39:44;93771.00;;;8.40
41593;BMP180;28026;48.562;14.440;2023-11-22T03:42:18;93783.00;;;8.40
41593;BMP180;28026;48.562;14.440;2023-11-22T03:44:49;93791.00;;;8.40
41593;BMP180;28026;48.562;14.440;2023-11-22T03:47:21;93797.00;;;8.40
41593;BMP180;28026;48.562;14.440;2023-11-22T03:49:52;93798.00;;;8.40
41593;BMP180;28026;48.562;14.440;2023-11-22T03:52:23;93809.00;;;8.40
41593;BMP180;28026;48.562;14.440;2023-11-22T03:54:53;93821.00;;;8.30
41593;BMP180;28026;48.562;14.440;2023-11-22T03:57:25;93812.00;;;8.30
41593;BMP180;28026;48.562;14.440;2023-11-22T03:59:55;93821.00;;;8.30
41593;BMP180;28026;48.562;14.440;2023-11-22T04:02:26;93814.00;;;8.30
41593;BMP180;28026;48.562;14.440;2023-11-22T04:04:59;93820.00;;;8.40
41593;BMP180;28026;48.562;14.440;2023-11-22T04:07:30;93816.00;;;8.40
41593;BMP180;28026;48.562;14.440;2023-11-22T04:10:01;93819.00;;;8.40
41593;BMP180;28026;48.562;14.440;2023-11-22T04:12:32;93830.00;;;8.40
41593;BMP180;28026;48.562;14.440;2023-11-22T04:15:04;93817.00;;;8.40
41593;BMP180;28026;48.562;14.440;2023-11-22T04:17:40;93830.00;;;8.40
41593;BMP180;28026;48.562;14.440;2023-11-22T04:20:11;93825.00;;;8.40
41593;BMP180;28026;48.562;14.440;2023-11-22T04:22:45;93827.00;;;8.40
41593;BMP180;28026;48.562;14.440;2023-11-22T04:25:16;93830.00;;;8.30
41593;BMP180;28026;48.562;14.440;2023-11-22T04:27:47;93831.00;;;8.40
41593;BMP180;28026;48.562;14.440;2023-11-22T04:30:18;93834.00;;;8.40
41593;BMP180;28026;48.562;14.440;2023-11-22T04:32:49;93841.00;;;8.40
41593;BMP180;28026;48.562;14.440;2023-11-22T04:35:20;93844.00;;;8.30
41593;BMP180;28026;48.562;14.440;2023-11-22T04:37:51;93843.00;;;8.30
41593;BMP180;28026;48.562;14.440;2023-11-22T04:40:21;93848.00;;;8.30
41593;BMP180;28026;48.562;14.440;2023-11-22T04:42:52;93851.00;;;8.30
41593;BMP180;28026;48.562;14.440;2023-11-22T04:45:23;93845.00;;;8.40
41593;BMP180;28026;48.562;14.440;2023-11-22T04:47:54;93843.00;;;8.40
41593;BMP180;28026;48.562;14.440;2023-11-22T04:50:27;93841.00;;;8.30
41593;BMP180;28026;48.562;14.440;2023-11-22T04:52:58;93861.00;;;8.30
41593;BMP180;28026;48.562;14.440;2023-11-22T04:55:32;93865.00;;;8.30
41593;BMP180;28026;48.562;14.440;2023-11-22T04:58:03;93868.00;;;8.40
41593;BMP180;28026;48.562;14.440;2023-11-22T05:00:34;93880.00;;;8.40
41593;BMP180;28026;48.562;14.440;2023-11-22T05:03:05;93871.00;;;8.40
41593;BMP180;28026;48.562;14.440;2023-11-22T05:05:36;93883.00;;;8.40
41593;BMP180;28026;48.562;14.440;2023-11-22T05:08:07;93880.00;;;8.30
41593;BMP180;28026;48.562;14.440;2023-11-22T05:10:38;93884.00;;;8.40
41593;BMP180;28026;48.562;14.440;2023-11-22T05:13:09;93889.00;;;8.30
41593;BMP180;28026;48.562;14.440;2023-11-22T05:15:40;93901.00;;;8.40
41593;BMP180;28026;48.562;14.440;2023-11-22T05:18:11;93888.00;;;8.30
41593;BMP180;28026;48.562;14.440;2023-11-22T05:20:42;93897.00;;;8.30
41593;BMP180;28026;48.562;14.440;2023-11-22T05:23:12;93883.00;;;8.30
41593;BMP180;28026;48.562;14.440;2023-11-22T05:25:44;93894.00;;;8.30
41593;BMP180;28026;48.562;14.440;2023-11-22T05:28:14;93891.00;;;8.30
41593;BMP180;28026;48.562;14.440;2023-11-22T05:30:45;93884.00;;;8.20
41593;BMP180;28026;48.562;14.440;2023-11-22T05:33:16;93886.00;;;8.20
41593;BMP180;28026;48.562;14.440;2023-11-22T05:35:47;93879.00;;;8.20
41593;BMP180;28026;48.562;14.440;2023-11-22T05:38:19;93897.00;;;8.10
41593;BMP180;28026;48.562;14.440;2023-11-22T05:40:50;93904.00;;;8.10
41593;BMP180;28026;48.562;14.440;2023-11-22T05:43:20;93898.00;;;8.10
41593;BMP180;28026;48.562;14.440;2023-11-22T05:45:57;93922.00;;;8.10
41593;BMP180;28026;48.562;14.440;2023-11-22T05:48:28;93933.00;;;8.10
41593;BMP180;28026;48.562;14.440;2023-11-22T05:50:59;93935.00;;;8.00
41593;BMP180;28026;48.562;14.440;2023-11-22T05:53:30;93939.00;;;8.00
41593;BMP180;28026;48.562;14.440;2023-11-22T05:56:01;93932.00;;;8.00
41593;BMP180;28026;48.562;14.440;2023-11-22T05:58:32;93939.00;;;8.00
41593;BMP180;28026;48.562;14.440;2023-11-22T06:01:02;93948.00;;;7.90
41593;BMP180;28026;48.562;14.440;2023-11-22T06:03:35;93951.00;;;7.90
41593;BMP180;28026;48.562;14.440;2023-11-22T06:06:07;93957.00;;;8.00
41593;BMP180;28026;48.562;14.440;2023-11-22T06:08:38;93961.00;;;8.00
41593;BMP180;28026;48.562;14.440;2023-11-22T06:11:09;93968.00;;;8.00
41593;BMP180;28026;48.562;14.440;2023-11-22T06:13:40;93953.00;;;8.00
41593;BMP180;28026;48.562;14.440;2023-11-22T06:16:11;93969.00;;;8.00
41593;BMP180;28026;48.562;14.440;2023-11-22T06:18:42;93975.00;;;8.00
41593;BMP180;28026;48.562;14.440;2023-11-22T06:21:15;93975.00;;;8.00
41593;BMP180;28026;48.562;14.440;2023-11-22T06:23:45;93982.00;;;8.10
41593;BMP180;28026;48.562;14.440;2023-11-22T06:26:16;93984.00;;;8.00
41593;BMP180;28026;48.562;14.440;2023-11-22T06:28:47;93979.00;;;8.00
41593;BMP180;28026;48.562;14.440;2023-11-22T06:31:19;93994.00;;;8.00
41593;BMP180;28026;48.562;14.440;2023-11-22T06:33:50;94004.00;;;8.00
41593;BMP180;28026;48.562;14.440;2023-11-22T06:36:22;94022.00;;;8.00
41593;BMP180;28026;48.562;14.440;2023-11-22T06:38:53;94015.00;;;7.90
41593;BMP180;28026;48.562;14.440;2023-11-22T06:41:24;94013.00;;;7.90
41593;BMP180;28026;48.562;14.440;2023-11-22T06:43:56;94010.00;;;7.90
41593;BMP180;28026;48.562;14.440;2023-11-22T06:46:27;94017.00;;;7.90
41593;BMP180;28026;48.562;14.440;2023-11-22T06:48:58;94017.00;;;8.00
41593;BMP180;28026;48.562;14.440;2023-11-22T06:51:29;94026.00;;;8.00
41593;BMP180;28026;48.562;14.440;2023-11-22T06:54:00;94029.00;;;8.00
41593;BMP180;28026;48.562;14.440;2023-11-22T06:56:30;94014.00;;;8.10
41593;BMP180;28026;48.562;14.440;2023-11-22T06:59:01;94017.00;;;8.10
41593;BMP180;28026;48.562;14.440;2023-11-22T07:01:32;94014.00;;;8.10
41593;BMP180;28026;48.562;14.440;2023-11-22T07:04:03;94021.00;;;8.10
41593;BMP180;28026;48.562;14.440;2023-11-22T07:06:35;94032.00;;;8.00
41593;BMP180;28026;48.562;14.440;2023-11-22T07:09:08;94045.00;;;7.90
41593;BMP180;28026;48.562;14.440;2023-11-22T07:11:42;94031.00;;;7.90
41593;BMP180;28026;48.562;14.440;2023-11-22T07:14:15;94051.00;;;7.90
41593;BMP180;28026;48.562;14.440;2023-11-22T07:16:47;94051.00;;;7.90
41593;BMP180;28026;48.562;14.440;2023-11-22T07:19:18;94067.00;;;7.90
41593;BMP180;28026;48.562;14.440;2023-11-22T07:21:49;94079.00;;;7.80
41593;BMP180;28026;48.562;14.440;2023-11-22T07:24:21;94081.00;;;7.80
41593;BMP180;28026;48.562;14.440;2023-11-22T07:26:51;94076.00;;;7.80
41593;BMP180;28026;48.562;14.440;2023-11-22T07:29:23;94065.00;;;7.80
41593;BMP180;28026;48.562;14.440;2023-11-22T07:31:56;94074.00;;;7.70
41593;BMP180;28026;48.562;14.440;2023-11-22T07:34:28;94070.00;;;7.70
41593;BMP180;28026;48.562;14.440;2023-11-22T07:36:59;94082.00;;;7.70
41593;BMP180;28026;48.562;14.440;2023-11-22T07:39:30;94076.00;;;7.70
41593;BMP180;28026;48.562;14.440;2023-11-22T07:42:02;94085.00;;;7.70
41593;BMP180;28026;48.562;14.440;2023-11-22T07:44:35;94086.00;;;7.70
41593;BMP180;28026;48.562;14.440;2023-11-22T07:47:08;94084.00;;;7.60
41593;BMP180;28026;48.562;14.440;2023-11-22T07:49:39;94081.00;;;7.60
41593;BMP180;28026;48.562;14.440;2023-11-22T07:52:12;94093.00;;;7.50
41593;BMP180;28026;48.562;14.440;2023-11-22T07:54:44;94089.00;;;7.50
41593;BMP180;28026;48.562;14.440;2023-11-22T07:57:15;94097.00;;;7.50
41593;BMP180;28026;48.562;14.440;2023-11-22T07:59:46;94113.00;;;7.50
41593;BMP180;28026;48.562;14.440;2023-11-22T08:02:18;94108.00;;;7.50
41593;BMP180;28026;48.562;14.440;2023-11-22T08:04:49;94109.00;;;7.50
41593;BMP180;28026;48.562;14.440;2023-11-22T08:07:21;94127.00;;;7.50
41593;BMP180;28026;48.562;14.440;2023-11-22T08:09:54;94128.00;;;7.50
41593;BMP180;28026;48.562;14.440;2023-11-22T08:12:25;94139.00;;;7.50
41593;BMP180;28026;48.562;14.440;2023-11-22T08:14:56;94134.00;;;7.50
41593;BMP180;28026;48.562;14.440;2023-11-22T08:17:27;94145.00;;;7.40
41593;BMP180;28026;48.562;14.440;2023-11-22T08:19:59;94132.00;;;7.40
41593;BMP180;28026;48.562;14.440;2023-11-22T08:22:30;94138.00;;;7.40
41593;BMP180;28026;48.562;14.440;2023-11-22T08:25:09;94138.00;;;7.40
41593;BMP180;28026;48.562;14.440;2023-11-22T08:27:43;94132.00;;;7.40
41593;BMP180;28026;48.562;14.440;2023-11-22T08:30:14;94149.00;;;7.40
41593;BMP180;28026;48.562;14.440;2023-11-22T08:32:46;94151.00;;;7.40
41593;BMP180;28026;48.562;14.440;2023-11-22T08:35:21;94148.00;;;7.40
41593;BMP180;28026;48.562;14.440;2023-11-22T08:37:53;94141.00;;;7.40
41593;BMP180;28026;48.562;14.440;2023-11-22T08:40:24;94153.00;;;7.40
41593;BMP180;28026;48.562;14.440;2023-11-22T08:42:56;94163.00;;;7.50
41593;BMP180;28026;48.562;14.440;2023-11-22T08:45:27;94167.00;;;7.50
41593;BMP180;28026;48.562;14.440;2023-11-22T08:47:59;94179.00;;;7.60
41593;BMP180;28026;48.562;14.440;2023-11-22T08:50:30;94179.00;;;7.60
41593;BMP180;28026;48.562;14.440;2023-11-22T08:53:01;94180.00;;;7.60
41593;BMP180;28026;48.562;14.440;2023-11-22T08:55:32;94172.00;;;7.60
41593;BMP180;28026;48.562;14.440;2023-11-22T08:58:04;94196.00;;;7.60
41593;BMP180;28026;48.562;14.440;2023-11-22T09:00:35;94199.00;;;7.50
41593;BMP180;28026;48.562;14.440;2023-11-22T09:03:07;94205.00;;;7.50
41593;BMP180;28026;48.562;14.440;2023-11-22T09:05:40;94208.00;;;7.60
41593;BMP180;28026;48.562;14.440;2023-11-22T09:08:11;94218.00;;;7.60
41593;BMP180;28026;48.562;14.440;2023-11-22T09:10:43;94228.00;;;7.60
41593;BMP180;28026;48.562;14.440;2023-11-22T09:13:15;94236.00;;;7.60
41593;BMP180;28026;48.562;14.440;2023-11-22T09:15:50;94232.00;;;7.60
41593;BMP180;28026;48.562;14.440;2023-11-22T09:18:21;94252.00;;;7.60
41593;BMP180;28026;48.562;14.440;2023-11-22T09:20:52;94261.00;;;7.60
41593;BMP180;28026;48.562;14.440;2023-11-22T09:23:24;94264.00;;;7.60
41593;BMP180;28026;48.562;14.440;2023-11-22T09:25:57;94259.00;;;7.50
41593;BMP180;28026;48.562;14.440;2023-11-22T09:28:28;94245.00;;;7.50
41593;BMP180;28026;48.562;14.440;2023-11-22T09:30:59;94223.00;;;7.50
41593;BMP180;28026;48.562;14.440;2023-11-22T09:33:36;94224.00;;;7.50
41593;BMP180;28026;48.562;14.440;2023-11-22T09:36:08;94224.00;;;7.60
41593;BMP180;28026;48.562;14.440;2023-11-22T09:38:39;94220.00;;;7.60
41593;BMP180;28026;48.562;14.440;2023-11-22T09:41:11;94219.00;;;7.60
41593;BMP180;28026;48.562;14.440;2023-11-22T09:43:42;94245.00;;;7.70
41593;BMP180;28026;48.562;14.440;2023-11-22T09:46:14;94267.00;;;7.70
41593;BMP180;28026;48.562;14.440;2023-11-22T09:48:48;94281.00;;;7.70
41593;BMP180;28026;48.562;14.440;2023-11-22T09:51:30;94257.00;;;7.60
41593;BMP180;28026;48.562;14.440;2023-11-22T09:54:06;94258.00;;;7.60
41593;BMP180;28026;48.562;14.440;2023-11-22T09:56:40;94260.00;;;7.60
41593;BMP180;28026;48.562;14.440;2023-11-22T09:59:13;94264.00;;;7.70
41593;BMP180;28026;48.562;14.440;2023-11-22T10:01:45;94279.00;;;7.70
41593;BMP180;28026;48.562;14.440;2023-11-22T10:04:16;94269.00;;;7.70
41593;BMP180;28026;48.562;14.440;2023-11-22T10:06:47;94259.00;;;7.80
41593;BMP180;28026;48.562;14.440;2023-11-22T10:09:19;94271.00;;;7.90
41593;BMP180;28026;48.562;14.440;2023-11-22T10:11:50;94262.00;;;7.90
41593;BMP180;28026;48.562;14.440;2023-11-22T10:14:24;94257.00;;;7.90
41593;BMP180;28026;48.562;14.440;2023-11-22T10:17:00;94258.00;;;8.00
41593;BMP180;28026;48.562;14.440;2023-11-22T10:19:32;94261.00;;;7.90
41593;BMP180;28026;48.562;14.440;2023-11-22T10:22:06;94247.00;;;8.00
41593;BMP180;28026;48.562;14.440;2023-11-22T10:24:38;94254.00;;;8.00
41593;BMP180;28026;48.562;14.440;2023-11-22T10:27:11;94251.00;;;7.90
41593;BMP180;28026;48.562;14.440;2023-11-22T10:29:41;94257.00;;;8.00
41593;BMP180;28026;48.562;14.440;2023-11-22T10:32:16;94249.00;;;8.00
41593;BMP180;28026;48.562;14.440;2023-11-22T10:34:47;94257.00;;;8.00
41593;BMP180;28026;48.562;14.440;2023-11-22T10:37:19;94266.00;;;8.10
41593;BMP180;28026;48.562;14.440;2023-11-22T10:39:53;94268.00;;;8.10
41593;BMP180;28026;48.562;14.440;2023-11-22T10:42:25;94271.00;;;8.20
41593;BMP180;28026;48.562;14.440;2023-11-22T10:44:59;94262.00;;;8.20
41593;BMP180;28026;48.562;14.440;2023-11-22T10:47:39;94276.00;;;8.30
41593;BMP180;28026;48.562;14.440;2023-11-22T10:50:12;94287.00;;;8.30
41593;BMP180;28026;48.562;14.440;2023-11-22T10:52:47;94286.00;;;8.30
41593;BMP180;28026;48.562;14.440;2023-11-22T10:55:32;94287.00;;;8.20
41593;BMP180;28026;48.562;14.440;2023-11-22T10:58:06;94295.00;;;8.20
41593;BMP180;28026;48.562;14.440;2023-11-22T11:00:44;94283.00;;;8.10
41593;BMP180;28026;48.562;14.440;2023-11-22T11:03:22;94286.00;;;8.20
41593;BMP180;28026;48.562;14.440;2023-11-22T11:06:02;94288.00;;;8.20
41593;BMP180;28026;48.562;14.440;2023-11-22T11:08:38;94294.00;;;8.20
41593;BMP180;28026;48.562;14.440;2023-11-22T11:11:09;94292.00;;;8.30
41593;BMP180;28026;48.562;14.440;2023-11-22T11:13:41;94300.00;;;8.30
41593;BMP180;28026;48.562;14.440;2023-11-22T11:16:14;94303.00;;;8.20
41593;BMP180;28026;48.562;14.440;2023-11-22T11:18:47;94306.00;;;8.20
41593;BMP180;28026;48.562;14.440;2023-11-22T11:21:19;94303.00;;;8.20
41593;BMP180;28026;48.562;14.440;2023-11-22T11:23:52;94317.00;;;8.30
41593;BMP180;28026;48.562;14.440;2023-11-22T11:26:25;94319.00;;;8.30
41593;BMP180;28026;48.562;14.440;2023-11-22T11:28:56;94312.00;;;8.30
41593;BMP180;28026;48.562;14.440;2023-11-22T11:31:32;94315.00;;;8.30
41593;BMP180;28026;48.562;14.440;2023-11-22T11:34:07;94326.00;;;8.30
41593;BMP180;28026;48.562;14.440;2023-11-22T11:36:38;94320.00;;;8.30
41593;BMP180;28026;48.562;14.440;2023-11-22T11:39:13;94325.00;;;8.40
41593;BMP180;28026;48.562;14.440;2023-11-22T11:41:47;94324.00;;;8.40
41593;BMP180;28026;48.562;14.440;2023-11-22T11:44:18;94328.00;;;8.50
41593;BMP180;28026;48.562;14.440;2023-11-22T11:46:51;94326.00;;;8.50
41593;BMP180;28026;48.562;14.440;2023-11-22T11:49:22;94324.00;;;8.50
41593;BMP180;28026;48.562;14.440;2023-11-22T11:51:53;94318.00;;;8.50
41593;BMP180;28026;48.562;14.440;2023-11-22T11:54:24;94318.00;;;8.50
41593;BMP180;28026;48.562;14.440;2023-11-22T11:57:01;94312.00;;;8.50
41593;BMP180;28026;48.562;14.440;2023-11-22T11:59:34;94334.00;;;8.50
41593;BMP180;28026;48.562;14.440;2023-11-22T12:02:05;94331.00;;;8.40
41593;BMP180;28026;48.562;14.440;2023-11-22T12:04:37;94331.00;;;8.40
41593;BMP180;28026;48.562;14.440;2023-11-22T12:07:12;94332.00;;;8.40
41593;BMP180;28026;48.562;14.440;2023-11-22T12:09:43;94339.00;;;8.40
41593;BMP180;28026;48.562;14.440;2023-11-22T12:12:14;94340.00;;;8.40
41593;BMP180;28026;48.562;14.440;2023-11-22T12:14:45;94341.00;;;8.30
41593;BMP180;28026;48.562;14.440;2023-11-22T12:17:16;94344.00;;;8.30
41593;BMP180;28026;48.562;14.440;2023-11-22T12:19:48;94354.00;;;8.30
41593;BMP180;28026;48.562;14.440;2023-11-22T12:22:20;94348.00;;;8.20
41593;BMP180;28026;48.562;14.440;2023-11-22T12:24:52;94348.00;;;8.20
41593;BMP180;28026;48.562;14.440;2023-11-22T12:27:24;94340.00;;;8.20
41593;BMP180;28026;48.562;14.440;2023-11-22T12:29:55;94332.00;;;8.30
41593;BMP180;28026;48.562;14.440;2023-11-22T12:32:26;94336.00;;;8.30
41593;BMP180;28026;48.562;14.440;2023-11-22T12:34:57;94336.00;;;8.20
41593;BMP180;28026;48.562;14.440;2023-11-22T12:37:28;94319.00;;;8.20
41593;BMP180;28026;48.562;14.440;2023-11-22T12:40:09;94305.00;;;8.20
41593;BMP180;28026;48.562;14.440;2023-11-22T12:42:51;94306.00;;;8.20
41593;BMP180;28026;48.562;14.440;2023-11-22T12:45:26;94311.00;;;8.20
41593;BMP180;28026;48.562;14.440;2023-11-22T12:47:59;94309.00;;;8.20
41593;BMP180;28026;48.562;14.440;2023-11-22T12:50:37;94309.00;;;8.20
41593;BMP180;28026;48.562;14.440;2023-11-22T12:53:14;94297.00;;;8.20
41593;BMP180;28026;48.562;14.440;2023-11-22T12:55:49;94297.00;;;8.20
41593;BMP180;28026;48.562;14.440;2023-11-22T12:58:25;94311.00;;;8.10
41593;BMP180;28026;48.562;14.440;2023-11-22T13:00:56;94306.00;;;8.10
41593;BMP180;28026;48.562;14.440;2023-11-22T13:03:31;94306.00;;;8.10
41593;BMP180;28026;48.562;14.440;2023-11-22T13:06:02;94318.00;;;8.10
41593;BMP180;28026;48.562;14.440;2023-11-22T13:08:34;94326.00;;;8.20
41593;BMP180;28026;48.562;14.440;2023-11-22T13:11:06;94325.00;;;8.30
41593;BMP180;28026;48.562;14.440;2023-11-22T13:13:38;94318.00;;;8.30
41593;BMP180;28026;48.562;14.440;2023-11-22T13:16:09;94325.00;;;8.30
41593;BMP180;28026;48.562;14.440;2023-11-22T13:18:40;94337.00;;;8.40
41593;BMP180;28026;48.562;14.440;2023-11-22T13:21:11;94329.00;;;8.30
41593;BMP180;28026;48.562;14.440;2023-11-22T13:23:42;94337.00;;;8.30
41593;BMP180;28026;48.562;14.440;2023-11-22T13:26:13;94340.00;;;8.30
41593;BMP180;28026;48.562;14.440;2023-11-22T13:28:44;94341.00;;;8.30
41593;BMP180;28026;48.562;14.440;2023-11-22T13:31:15;94342.00;;;8.30
41593;BMP180;28026;48.562;14.440;2023-11-22T13:33:46;94342.00;;;8.30
41593;BMP180;28026;48.562;14.440;2023-11-22T13:36:17;94335.00;;;8.30
41593;BMP180;28026;48.562;14.440;2023-11-22T13:38:48;94335.00;;;8.40
41593;BMP180;28026;48.562;14.440;2023-11-22T13:41:19;94349.00;;;8.40
41593;BMP180;28026;48.562;14.440;2023-11-22T13:43:50;94348.00;;;8.40
41593;BMP180;28026;48.562;14.440;2023-11-22T13:46:21;94341.00;;;8.40
41593;BMP180;28026;48.562;14.440;2023-11-22T13:48:52;94339.00;;;8.40
41593;BMP180;28026;48.562;14.440;2023-11-22T13:51:23;94346.00;;;8.40
41593;BMP180;28026;48.562;14.440;2023-11-22T13:53:55;94340.00;;;8.40
41593;BMP180;28026;48.562;14.440;2023-11-22T13:56:26;94336.00;;;8.30
41593;BMP180;28026;48.562;14.440;2023-11-22T13:58:57;94351.00;;;8.30
41593;BMP180;28026;48.562;14.440;2023-11-22T14:01:29;94346.00;;;8.30
41593;BMP180;28026;48.562;14.440;2023-11-22T14:04:03;94346.00;;;8.30
41593;BMP180;28026;48.562;14.440;2023-11-22T14:06:36;94351.00;;;8.30
41593;BMP180;28026;48.562;14.440;2023-11-22T14:09:07;94356.00;;;8.30
41593;BMP180;28026;48.562;14.440;2023-11-22T14:11:39;94343.00;;;8.30
41593;BMP180;28026;48.562;14.440;2023-11-22T14:14:10;94361.00;;;8.30
41593;BMP180;28026;48.562;14.440;2023-11-22T14:16:40;94369.00;;;8.30
41593;BMP180;28026;48.562;14.440;2023-11-22T14:19:15;94375.00;;;8.30
41593;BMP180;28026;48.562;14.440;2023-11-22T14:21:46;94373.00;;;8.30
41593;BMP180;28026;48.562;14.440;2023-11-22T14:24:16;94382.00;;;8.30
41593;BMP180;28026;48.562;14.440;2023-11-22T14:26:48;94387.00;;;8.30
41593;BMP180;28026;48.562;14.440;2023-11-22T14:29:21;94392.00;;;8.30
41593;BMP180;28026;48.562;14.440;2023-11-22T14:31:52;94398.00;;;8.30